Time;durP1;ratioP1;P1;durP2;ratioP2;P2;SDS_P1;SDS_P2;PMS_P1;PMS_P2;Temp;Humidity;BMP_temperature;BMP_pressure;BME280_temperature;BME280_humidity;BME280_pressure;Samples;Min_cycle;Max_cycle;Signal;HPM_P1;HPM_P2
2021/01/16 00:00:25;;;;;;;21.52;12.52;;;1.70;65.90;;;;;;4976106;28;20216;-75
2021/01/16 00:02:51;;;;;;;22.58;12.63;;;1.70;66.70;;;;;;4976108;28;20255;-74
2021/01/16 00:05:19;;;;;;;23.48;12.40;;;1.70;67.00;;;;;;4975131;28;20236;-75
2021/01/16 00:07:47;;;;;;;25.85;13.50;;;1.60;67.70;;;;;;4975414;28;20229;-75
2021/01/16 00:10:15;;;;;;;25.05;14.35;;;1.50;67.90;;;;;;4976635;28;20209;-75
2021/01/16 00:12:41;;;;;;;21.20;12.40;;;1.50;69.50;;;;;;4978218;28;20212;-76
2021/01/16 00:15:09;;;;;;;20.17;12.00;;;1.50;69.20;;;;;;4978995;28;20205;-75
2021/01/16 00:17:36;;;;;;;21.45;12.35;;;1.50;69.30;;;;;;4978115;28;20715;-76
2021/01/16 00:20:04;;;;;;;20.02;13.13;;;1.70;69.60;;;;;;4976404;28;20245;-75
2021/01/16 00:22:31;;;;;;;19.83;12.35;;;1.70;68.50;;;;;;4976506;28;20802;-75
2021/01/16 00:24:58;;;;;;;19.30;11.85;;;1.70;69.00;;;;;;4976631;28;20201;-76
2021/01/16 00:27:26;;;;;;;20.75;12.65;;;1.70;68.40;;;;;;4976238;28;20240;-75
2021/01/16 00:29:52;;;;;;;21.92;12.73;;;1.60;68.70;;;;;;4976014;28;20287;-76
2021/01/16 00:32:18;;;;;;;24.23;12.88;;;1.60;68.80;;;;;;4975434;28;20256;-74
2021/01/16 00:34:46;;;;;;;28.20;17.13;;;1.50;69.60;;;;;;4975515;28;20209;-75
2021/01/16 00:37:13;;;;;;;25.15;14.48;;;1.40;70.00;;;;;;4975649;28;20257;-76
2021/01/16 00:39:39;;;;;;;23.55;13.77;;;1.30;70.50;;;;;;4975734;28;20292;-77
2021/01/16 00:42:06;;;;;;;21.52;13.18;;;1.30;71.30;;;;;;4976110;28;20213;-76
2021/01/16 00:44:32;;;;;;;21.35;12.57;;;1.30;71.50;;;;;;4975913;28;20208;-75
2021/01/16 00:46:58;;;;;;;24.15;13.05;;;1.30;71.60;;;;;;4976421;28;20284;-76
2021/01/16 00:49:25;;;;;;;22.15;12.80;;;1.40;71.10;;;;;;4976273;28;20224;-76
2021/01/16 00:51:52;;;;;;;20.27;11.82;;;1.40;71.50;;;;;;4975978;28;20213;-75
2021/01/16 00:54:18;;;;;;;19.52;11.85;;;1.50;71.30;;;;;;4975008;28;20209;-74
2021/01/16 00:56:45;;;;;;;19.77;11.73;;;1.60;70.70;;;;;;4975512;28;20236;-75
2021/01/16 00:59:11;;;;;;;22.55;12.70;;;1.60;70.10;;;;;;4974190;28;20256;-75
2021/01/16 01:01:39;;;;;;;18.60;12.23;;;1.60;70.10;;;;;;4974786;28;20224;-76
2021/01/16 01:04:08;;;;;;;21.20;12.75;;;1.50;70.00;;;;;;4974078;28;20217;-77
2021/01/16 01:06:34;;;;;;;20.23;12.98;;;1.50;70.00;;;;;;4974317;28;20237;-76
2021/01/16 01:09:03;;;;;;;18.95;12.68;;;1.50;70.00;;;;;;4974287;28;20595;-75
2021/01/16 01:11:29;;;;;;;26.98;12.88;;;1.50;70.00;;;;;;4973992;28;20761;-76
2021/01/16 01:13:56;;;;;;;27.10;14.52;;;1.50;70.00;;;;;;4974589;28;20205;-74
2021/01/16 01:16:22;;;;;;;19.65;13.30;;;1.50;70.00;;;;;;4974114;28;20248;-75
2021/01/16 01:18:49;;;;;;;22.88;13.40;;;1.50;70.00;;;;;;4974190;28;20273;-75
2021/01/16 01:21:15;;;;;;;20.70;12.57;;;1.50;70.00;;;;;;4974735;28;20232;-76
2021/01/16 01:23:42;;;;;;;19.45;11.27;;;1.50;70.00;;;;;;4974694;28;20240;-76
2021/01/16 01:26:09;;;;;;;18.33;12.15;;;1.50;68.00;;;;;;4974639;28;20558;-76
2021/01/16 01:28:36;;;;;;;22.02;12.15;;;1.50;68.50;;;;;;4974448;28;20232;-74
2021/01/16 01:31:02;;;;;;;20.40;12.32;;;1.50;68.00;;;;;;4975712;28;20276;-76
2021/01/16 01:33:29;;;;;;;20.27;10.40;;;1.50;67.70;;;;;;4976129;28;20228;-75
2021/01/16 01:35:55;;;;;;;18.08;11.20;;;1.50;67.20;;;;;;4975970;28;20243;-76
2021/01/16 01:38:21;;;;;;;19.70;10.90;;;1.50;66.60;;;;;;4975747;28;20211;-74
2021/01/16 01:40:48;;;;;;;21.63;11.57;;;1.40;66.20;;;;;;4975872;28;20627;-75
2021/01/16 01:43:16;;;;;;;23.25;11.50;;;1.50;65.90;;;;;;4975922;28;20241;-76
2021/01/16 01:45:42;;;;;;;17.00;10.20;;;1.50;65.70;;;;;;4973508;28;20216;-76
2021/01/16 01:48:10;;;;;;;19.05;11.35;;;1.50;65.70;;;;;;4973602;28;20233;-75
2021/01/16 01:50:37;;;;;;;19.73;12.10;;;1.60;65.40;;;;;;4973397;28;20236;-76
2021/01/16 01:53:04;;;;;;;23.83;12.82;;;1.60;65.00;;;;;;4973338;28;20226;-76
2021/01/16 01:55:34;;;;;;;20.77;11.95;;;1.70;65.90;;;;;;4973451;28;20736;-76
2021/01/16 01:58:00;;;;;;;22.13;12.20;;;1.60;65.80;;;;;;4973451;28;20225;-74
2021/01/16 02:00:28;;;;;;;20.85;12.25;;;1.60;66.60;;;;;;4973939;28;20206;-76
2021/01/16 02:02:59;;;;;;;19.70;11.25;;;1.60;67.20;;;;;;4973329;28;20217;-74
2021/01/16 02:05:26;;;;;;;20.73;12.18;;;1.60;67.40;;;;;;4973557;28;20193;-75
2021/01/16 02:07:52;;;;;;;23.60;13.25;;;1.60;67.60;;;;;;4972848;28;20230;-75
2021/01/16 02:10:22;;;;;;;23.92;13.88;;;1.60;68.00;;;;;;4973251;28;20265;-75
2021/01/16 02:12:51;;;;;;;25.40;13.90;;;1.50;68.50;;;;;;4973133;28;20234;-75
2021/01/16 02:15:26;;;;;;;23.40;13.38;;;1.40;69.10;;;;;;4973158;28;20213;-74
2021/01/16 02:17:56;;;;;;;22.77;14.05;;;1.40;70.00;;;;;;4973115;28;20700;-76
2021/01/16 02:20:32;;;;;;;23.10;14.27;;;1.40;70.00;;;;;;4972774;28;20209;-76
2021/01/16 02:23:32;;;;;;;24.20;13.95;;;1.30;69.90;;;;;;4973217;28;20204;-75
2021/01/16 02:26:30;;;;;;;22.95;14.18;;;1.40;70.00;;;;;;4972363;28;20283;-79
2021/01/16 02:28:59;;;;;;;30.05;14.98;;;1.40;70.00;;;;;;4973232;28;20219;-76
2021/01/16 02:31:30;;;;;;;28.60;14.27;;;1.30;70.70;;;;;;4973434;28;20248;-74
2021/01/16 02:34:00;;;;;;;22.35;13.95;;;1.20;71.20;;;;;;4973574;28;20703;-75
2021/01/16 02:36:39;;;;;;;24.23;14.00;;;1.20;72.60;;;;;;4973049;28;20224;-76
2021/01/16 02:39:13;;;;;;;25.13;14.98;;;1.20;73.50;;;;;;4973288;28;20200;-75
2021/01/16 02:41:51;;;;;;;27.48;15.35;;;1.20;74.00;;;;;;4974057;28;20196;-76
2021/01/16 02:44:22;;;;;;;23.55;14.10;;;1.10;74.60;;;;;;4976758;28;20287;-75
2021/01/16 02:46:50;;;;;;;25.75;15.20;;;1.10;75.40;;;;;;4982811;28;20311;-75
2021/01/16 02:49:36;;;;;;;25.67;15.00;;;1.00;76.50;;;;;;4977161;28;20229;-75
2021/01/16 02:52:05;;;;;;;25.15;14.93;;;1.00;78.00;;;;;;4976501;28;20615;-76
2021/01/16 02:54:35;;;;;;;31.00;15.90;;;1.10;78.20;;;;;;4976666;28;20260;-75
2021/01/16 02:57:03;;;;;;;25.40;15.77;;;1.00;78.00;;;;;;4977623;28;20317;-76
2021/01/16 02:59:34;;;;;;;24.45;13.85;;;1.00;78.00;;;;;;4977947;28;20260;-75
2021/01/16 03:02:04;;;;;;;28.00;15.75;;;1.00;78.20;;;;;;4976954;28;20568;-75
2021/01/16 03:04:30;;;;;;;21.13;14.40;;;0.90;78.40;;;;;;4976633;28;20566;-76
2021/01/16 03:06:58;;;;;;;27.23;15.75;;;0.90;79.60;;;;;;4976645;28;20316;-76
2021/01/16 03:09:26;;;;;;;23.75;15.63;;;0.90;79.40;;;;;;4976895;28;20235;-76
2021/01/16 03:11:53;;;;;;;25.33;15.27;;;0.90;79.40;;;;;;4976560;28;20229;-74
2021/01/16 03:14:21;;;;;;;27.08;16.38;;;0.80;79.80;;;;;;4976644;28;20686;-76
2021/01/16 03:17:07;;;;;;;25.63;14.68;;;0.80;79.60;;;;;;4976592;28;20244;-75
2021/01/16 03:19:35;;;;;;;25.48;14.40;;;0.70;79.80;;;;;;4976268;28;20217;-77
2021/01/16 03:22:15;;;;;;;25.08;14.57;;;0.70;79.40;;;;;;4976859;28;20209;-76
2021/01/16 03:24:41;;;;;;;25.08;14.77;;;0.70;78.80;;;;;;4976495;28;20568;-76
2021/01/16 03:27:08;;;;;;;24.25;13.77;;;0.50;77.80;;;;;;4975799;28;20316;-76
2021/01/16 03:29:34;;;;;;;22.83;14.35;;;0.50;78.50;;;;;;4976030;28;20735;-75
2021/01/16 03:32:00;;;;;;;23.48;14.70;;;0.50;79.30;;;;;;4976291;28;20300;-75
2021/01/16 03:34:27;;;;;;;21.90;14.38;;;0.40;77.90;;;;;;4976293;28;20684;-75
2021/01/16 03:36:54;;;;;;;22.08;14.82;;;0.40;78.40;;;;;;4977233;28;20312;-75
2021/01/16 03:39:20;;;;;;;27.02;15.68;;;0.40;78.70;;;;;;4976970;28;20292;-75
2021/01/16 03:41:47;;;;;;;23.15;15.35;;;0.30;78.80;;;;;;4977328;28;20720;-74
2021/01/16 03:44:13;;;;;;;27.05;15.50;;;0.30;78.50;;;;;;4990585;28;20217;-78
2021/01/16 03:46:39;;;;;;;22.60;14.38;;;0.30;78.80;;;;;;5000276;28;20209;-76
2021/01/16 03:49:05;;;;;;;24.55;14.85;;;0.30;79.10;;;;;;5000104;28;20355;-76
2021/01/16 03:51:33;;;;;;;22.25;14.90;;;0.20;78.10;;;;;;5000185;28;20351;-76
2021/01/16 03:53:59;;;;;;;28.75;17.05;;;0.20;78.40;;;;;;4999852;28;20215;-78
2021/01/16 03:56:26;;;;;;;25.00;15.38;;;0.30;78.40;;;;;;4999042;28;20239;-77
2021/01/16 03:58:52;;;;;;;25.38;15.82;;;0.20;77.40;;;;;;4999747;28;20193;-77
2021/01/16 04:01:18;;;;;;;27.98;15.90;;;0.10;77.30;;;;;;4999587;28;20193;-78
2021/01/16 04:03:45;;;;;;;23.48;16.10;;;0.00;77.60;;;;;;4999244;28;20231;-75
2021/01/16 04:06:15;;;;;;;28.80;16.42;;;0.10;78.30;;;;;;4997684;28;20289;-74
2021/01/16 04:08:42;;;;;;;21.88;14.43;;;0.10;78.20;;;;;;4992026;28;20340;-75
2021/01/16 04:11:09;;;;;;;27.25;16.25;;;0.10;77.80;;;;;;4991687;28;20221;-76
2021/01/16 04:13:35;;;;;;;26.92;16.90;;;0.00;77.20;;;;;;4989796;28;20641;-74
2021/01/16 04:16:02;;;;;;;28.42;16.75;;;0.10;78.40;;;;;;4990565;28;20242;-75
2021/01/16 04:18:28;;;;;;;26.60;16.48;;;0.10;78.80;;;;;;4988901;28;20194;-76
2021/01/16 04:20:54;;;;;;;31.73;17.80;;;0.10;78.60;;;;;;4990952;28;20315;-76
2021/01/16 04:23:21;;;;;;;27.35;15.57;;;0.10;79.30;;;;;;4989857;28;20216;-75
2021/01/16 04:25:48;;;;;;;24.13;15.38;;;0.10;78.20;;;;;;4989555;28;20215;-76
2021/01/16 04:28:14;;;;;;;31.10;17.95;;;0.10;78.70;;;;;;4989092;28;20219;-74
2021/01/16 04:30:41;;;;;;;26.60;15.93;;;0.20;78.10;;;;;;4988930;28;20280;-77
2021/01/16 04:33:07;;;;;;;24.20;15.50;;;0.20;77.40;;;;;;4988071;28;20342;-74
2021/01/16 04:35:33;;;;;;;25.20;15.57;;;0.20;77.30;;;;;;4988276;28;20209;-75
2021/01/16 04:38:00;;;;;;;24.05;15.07;;;0.20;77.30;;;;;;4988922;28;20241;-75
2021/01/16 04:40:27;;;;;;;26.23;15.52;;;0.20;77.30;;;;;;4988606;28;20211;-75
2021/01/16 04:42:55;;;;;;;26.25;15.65;;;0.10;77.30;;;;;;4985721;28;20256;-76
2021/01/16 04:45:21;;;;;;;30.42;17.45;;;0.10;77.30;;;;;;4992091;28;20201;-77
2021/01/16 04:47:50;;;;;;;24.38;15.48;;;0.10;77.30;;;;;;4993013;28;20259;-75
2021/01/16 04:50:19;;;;;;;27.95;15.95;;;0.10;77.30;;;;;;4977957;28;20236;-75
2021/01/16 04:52:46;;;;;;;25.30;15.05;;;0.10;77.30;;;;;;4977981;28;20213;-75
2021/01/16 04:55:14;;;;;;;27.05;16.33;;;0.10;77.30;;;;;;4976654;28;20213;-75
2021/01/16 04:57:42;;;;;;;27.13;15.85;;;0.10;77.30;;;;;;4974808;28;20241;-75
2021/01/16 05:00:12;;;;;;;25.05;14.93;;;0.10;77.30;;;;;;4974941;28;20208;-75
2021/01/16 05:02:40;;;;;;;30.30;16.83;;;0.10;77.30;;;;;;4974477;28;20287;-75
2021/01/16 05:05:08;;;;;;;28.33;15.90;;;0.10;77.30;;;;;;4975335;28;20205;-75
2021/01/16 05:07:35;;;;;;;31.45;16.90;;;0.00;77.20;;;;;;4973972;28;20232;-74
2021/01/16 05:10:03;;;;;;;25.83;16.05;;;0.00;77.20;;;;;;4973926;28;20229;-75
2021/01/16 05:12:47;;;;;;;25.50;15.05;;;0.00;77.20;;;;;;4974095;28;20207;-75
2021/01/16 05:15:20;;;;;;;24.48;15.48;;;-0.10;77.10;;;;;;4973972;28;20299;-75
2021/01/16 05:17:55;;;;;;;26.17;15.02;;;-0.10;77.10;;;;;;4974994;28;20716;-76
2021/01/16 05:20:22;;;;;;;26.45;15.63;;;-0.10;77.10;;;;;;4977343;28;20660;-75
2021/01/16 05:22:48;;;;;;;24.98;14.52;;;-0.10;77.10;;;;;;4973609;28;20209;-74
2021/01/16 05:25:14;;;;;;;29.30;16.35;;;-0.10;77.10;;;;;;4973369;28;20685;-75
2021/01/16 05:27:56;;;;;;;28.60;16.40;;;-0.10;77.10;;;;;;4973593;28;20320;-74
2021/01/16 05:30:24;;;;;;;28.05;16.50;;;-0.10;77.10;;;;;;4974707;28;20252;-75
2021/01/16 05:32:51;;;;;;;28.05;16.83;;;0.00;77.20;;;;;;4975189;28;20212;-75
2021/01/16 05:35:19;;;;;;;25.98;15.05;;;-0.10;77.10;;;;;;4974370;28;20677;-75
2021/01/16 05:37:47;;;;;;;29.17;15.25;;;-0.10;77.10;;;;;;4974169;28;20268;-75
2021/01/16 05:40:14;;;;;;;26.10;15.30;;;-0.10;76.60;;;;;;4972899;28;20650;-75
2021/01/16 05:42:41;;;;;;;31.42;17.00;;;-0.10;77.00;;;;;;4972798;28;20213;-75
2021/01/16 05:45:09;;;;;;;25.27;16.30;;;-0.10;76.50;;;;;;4973878;28;20232;-75
2021/01/16 05:47:40;;;;;;;27.48;15.57;;;0.00;76.50;;;;;;4974233;28;20650;-75
2021/01/16 05:50:09;;;;;;;22.50;14.52;;;0.00;75.40;;;;;;4973751;28;20213;-75
2021/01/16 05:52:36;;;;;;;23.63;13.70;;;0.00;74.80;;;;;;4973587;28;20333;-75
2021/01/16 05:55:04;;;;;;;23.60;14.98;;;-0.10;74.40;;;;;;4973400;28;20312;-73
2021/01/16 05:57:31;;;;;;;28.23;15.48;;;-0.10;73.80;;;;;;4973716;28;20233;-74
2021/01/16 05:59:59;;;;;;;28.98;15.45;;;-0.10;74.10;;;;;;4973317;28;20209;-76
2021/01/16 06:02:30;;;;;;;28.23;15.43;;;-0.10;73.90;;;;;;4973177;28;20209;-76
2021/01/16 06:04:57;;;;;;;26.60;15.38;;;-0.10;73.50;;;;;;4973743;28;20646;-75
2021/01/16 06:07:24;;;;;;;21.95;14.05;;;-0.20;73.90;;;;;;4972351;28;20225;-75
2021/01/16 06:09:51;;;;;;;23.45;14.75;;;-0.20;74.30;;;;;;4972587;28;20279;-75
2021/01/16 06:12:20;;;;;;;26.90;14.85;;;-0.20;74.70;;;;;;4973597;28;20316;-76
2021/01/16 06:14:48;;;;;;;22.73;14.98;;;-0.20;74.60;;;;;;4973075;28;20217;-75
2021/01/16 06:17:15;;;;;;;23.23;14.27;;;-0.20;74.60;;;;;;5002953;23;20232;-82
2021/01/16 06:19:44;;;;;;;24.38;14.30;;;-0.10;74.00;;;;;;4991609;28;20220;-82
2021/01/16 06:22:12;;;;;;;23.13;14.23;;;-0.10;72.90;;;;;;4991336;28;20620;-81
2021/01/16 06:24:44;;;;;;;23.70;14.60;;;-0.20;72.40;;;;;;4992720;28;20205;-80
2021/01/16 06:27:21;;;;;;;26.33;16.13;;;-0.30;72.70;;;;;;4985818;28;20257;-81
2021/01/16 06:29:56;;;;;;;23.05;14.10;;;-0.30;72.80;;;;;;4990165;28;20225;-81
2021/01/16 06:32:23;;;;;;;27.55;14.40;;;-0.30;72.70;;;;;;4997242;28;20261;-81
2021/01/16 06:35:05;;;;;;;27.30;16.05;;;-0.30;72.70;;;;;;4997395;28;20297;-82
2021/01/16 06:37:33;;;;;;;25.70;15.48;;;-0.30;72.80;;;;;;4997988;28;20215;-83
2021/01/16 06:39:59;;;;;;;25.17;15.50;;;-0.20;72.80;;;;;;4994293;28;20201;-80
2021/01/16 06:42:33;;;;;;;28.35;14.63;;;-0.30;72.70;;;;;;4991116;28;20245;-80
2021/01/16 06:45:07;;;;;;;26.63;14.48;;;-0.30;72.70;;;;;;4991803;28;20193;-81
2021/01/16 06:47:35;;;;;;;25.35;14.85;;;-0.30;72.70;;;;;;4990714;28;20233;-81
2021/01/16 06:50:03;;;;;;;26.15;14.35;;;-0.30;72.70;;;;;;4989619;28;20229;-81
2021/01/16 06:52:38;;;;;;;24.80;14.15;;;-0.30;72.70;;;;;;4985909;28;20216;-80
2021/01/16 06:55:06;;;;;;;28.17;15.75;;;-0.40;72.70;;;;;;4989280;28;20661;-80
2021/01/16 06:57:34;;;;;;;26.13;15.60;;;-0.40;72.90;;;;;;4992633;28;20221;-80
2021/01/16 07:00:02;;;;;;;24.92;15.50;;;-0.50;73.30;;;;;;4996311;28;20252;-79
2021/01/16 07:02:29;;;;;;;28.60;15.32;;;-0.50;73.60;;;;;;4995009;28;20213;-80
2021/01/16 07:04:58;;;;;;;26.13;15.35;;;-0.40;74.10;;;;;;4994949;28;20265;-81
2021/01/16 07:07:29;;;;;;;27.50;16.80;;;-0.40;74.30;;;;;;4994369;28;20261;-82
2021/01/16 07:09:59;;;;;;;29.10;15.20;;;-0.50;74.30;;;;;;4993461;28;20252;-82
2021/01/16 07:12:25;;;;;;;26.92;16.02;;;-0.50;75.10;;;;;;4994439;28;20189;-81
2021/01/16 07:14:52;;;;;;;23.77;15.00;;;-0.50;75.30;;;;;;4988157;28;20235;-80
2021/01/16 07:17:21;;;;;;;28.85;15.52;;;-0.50;75.50;;;;;;4994976;28;20255;-81
2021/01/16 07:19:47;;;;;;;27.85;16.00;;;-0.50;75.70;;;;;;4987674;28;20205;-81
2021/01/16 07:22:14;;;;;;;24.15;15.77;;;-0.50;74.70;;;;;;4983976;28;20208;-81
2021/01/16 07:24:42;;;;;;;25.88;15.32;;;-0.50;75.00;;;;;;4982700;28;20208;-81
2021/01/16 07:27:12;;;;;;;24.52;15.55;;;-0.50;75.10;;;;;;4984645;28;20249;-81
2021/01/16 07:29:39;;;;;;;26.75;15.30;;;-0.40;74.80;;;;;;4981432;28;20272;-81
2021/01/16 07:32:14;;;;;;;25.30;14.77;;;-0.40;74.60;;;;;;4983655;28;20209;-79
2021/01/16 07:34:48;;;;;;;22.08;14.68;;;-0.50;74.60;;;;;;4991023;28;20192;-79
2021/01/16 07:37:17;;;;;;;27.65;15.77;;;-0.40;75.20;;;;;;4986983;28;20238;-77
2021/01/16 07:39:44;;;;;;;26.48;15.40;;;-0.30;75.50;;;;;;4985182;28;20248;-78
2021/01/16 07:42:14;;;;;;;29.00;15.32;;;-0.30;75.20;;;;;;4992409;28;20217;-78
2021/01/16 07:44:45;;;;;;;31.23;16.27;;;-0.20;74.80;;;;;;4986009;28;20268;-78
2021/01/16 07:47:20;;;;;;;22.45;15.02;;;-0.20;74.20;;;;;;4990424;28;20221;-79
2021/01/16 07:49:54;;;;;;;24.38;15.63;;;-0.30;74.30;;;;;;4993961;28;20228;-79
2021/01/16 07:52:26;;;;;;;30.08;15.63;;;-0.20;74.30;;;;;;4995174;28;20201;-81
2021/01/16 07:55:07;;;;;;;24.90;15.35;;;-0.20;73.80;;;;;;4998707;28;20193;-81
2021/01/16 07:57:35;;;;;;;26.45;16.17;;;-0.20;73.60;;;;;;4992659;28;20248;-80
2021/01/16 08:00:08;;;;;;;27.52;17.00;;;-0.20;73.60;;;;;;4990279;28;20257;-77
2021/01/16 08:02:57;;;;;;;24.15;15.30;;;-0.20;74.00;;;;;;4994429;28;20189;-76
2021/01/16 08:05:32;;;;;;;25.42;14.75;;;-0.20;73.80;;;;;;4993150;28;20215;-76
2021/01/16 08:08:31;;;;;;;28.05;15.85;;;-0.30;74.20;;;;;;4990720;28;20212;-80
2021/01/16 08:11:00;;;;;;;25.20;15.48;;;-0.20;74.40;;;;;;4975727;28;20230;-79
2021/01/16 08:13:27;;;;;;;27.65;16.88;;;-0.20;73.70;;;;;;4985904;28;20296;-78
2021/01/16 08:16:03;;;;;;;25.95;15.95;;;-0.10;73.20;;;;;;4985765;28;20264;-77
2021/01/16 08:18:34;;;;;;;25.40;16.00;;;-0.10;72.50;;;;;;4982533;28;20228;-79
2021/01/16 08:21:07;;;;;;;29.20;16.42;;;-0.20;72.80;;;;;;4985069;28;20211;-78
2021/01/16 08:23:46;;;;;;;28.38;16.40;;;-0.10;72.60;;;;;;4993616;28;20209;-78
2021/01/16 08:26:13;;;;;;;24.33;15.35;;;-0.10;72.70;;;;;;4994156;28;20244;-79
2021/01/16 08:28:44;;;;;;;24.75;16.13;;;-0.10;72.50;;;;;;4995455;28;20209;-79
2021/01/16 08:31:25;;;;;;;27.30;16.50;;;-0.10;71.90;;;;;;4992409;28;20683;-83
2021/01/16 08:33:52;;;;;;;29.50;16.52;;;-0.10;72.10;;;;;;4991383;28;20209;-78
2021/01/16 08:36:20;;;;;;;27.60;16.65;;;0.00;72.20;;;;;;4991467;28;20209;-80
2021/01/16 08:38:48;;;;;;;26.88;16.42;;;-0.10;71.90;;;;;;4992951;28;20236;-79
2021/01/16 08:41:22;;;;;;;30.63;18.63;;;0.00;71.90;;;;;;4990396;28;20245;-77
2021/01/16 08:43:54;;;;;;;28.35;15.85;;;-0.10;70.90;;;;;;4989412;28;20208;-79
2021/01/16 08:46:26;;;;;;;33.72;18.63;;;-0.10;71.70;;;;;;4985985;28;20228;-78
2021/01/16 08:49:05;;;;;;;32.25;17.67;;;0.00;71.60;;;;;;4982146;28;20245;-82
2021/01/16 08:51:37;;;;;;;30.25;16.00;;;0.10;71.60;;;;;;4990395;28;20577;-80
2021/01/16 08:56:51;;;;;;;31.17;17.40;;;0.20;71.00;;;;;;5240098;23;20256;-81
2021/01/16 09:01:51;;;;;;;31.55;16.60;;;0.10;70.50;;;;;;4978218;28;20214;-75
2021/01/16 09:09:28;;;;;;;32.90;17.60;;;0.20;70.20;;;;;;5867188;23;20235;-78
2021/01/16 09:12:12;;;;;;;30.35;18.73;;;0.10;70.60;;;;;;5013807;28;20201;-77
2021/01/16 09:14:40;;;;;;;31.63;17.70;;;0.00;71.10;;;;;;5016930;28;20201;-83
2021/01/16 09:17:19;;;;;;;34.17;18.98;;;0.20;71.10;;;;;;5023096;28;20212;-83
2021/01/16 09:19:53;;;;;;;29.73;16.85;;;0.20;70.70;;;;;;5028717;28;20199;-84
2021/01/16 09:22:21;;;;;;;29.80;18.17;;;0.30;70.80;;;;;;5033952;28;20219;-81
2021/01/16 09:33:44;;;;;;;31.50;17.85;;;0.50;69.40;;;;;;4920141;29;20218;-79
2021/01/16 09:36:12;;;;;;;27.55;17.92;;;0.50;69.20;;;;;;4937345;29;20223;-81
2021/01/16 09:38:40;;;;;;;31.30;19.10;;;0.60;69.30;;;;;;4939238;29;20194;-80
2021/01/16 09:41:06;;;;;;;34.15;18.65;;;0.50;69.20;;;;;;4939830;29;20255;-81
2021/01/16 09:43:42;;;;;;;33.58;19.38;;;0.60;69.30;;;;;;4940269;29;20227;-82
2021/01/16 09:46:10;;;;;;;29.40;19.70;;;0.50;69.20;;;;;;4940784;29;20234;-81
2021/01/16 09:48:43;;;;;;;34.00;19.45;;;0.60;69.30;;;;;;4940631;29;20223;-80
2021/01/16 09:51:33;;;;;;;30.42;18.02;;;0.60;69.30;;;;;;4940061;29;20187;-81
2021/01/16 09:54:20;;;;;;;30.13;15.57;;;0.60;68.70;;;;;;4939358;29;20200;-80
2021/01/16 09:56:49;;;;;;;28.05;17.85;;;0.60;69.30;;;;;;4939143;29;20281;-81
2021/01/16 09:59:22;;;;;;;32.55;17.92;;;0.50;69.00;;;;;;4940069;29;20195;-80
2021/01/16 10:02:08;;;;;;;31.67;18.17;;;0.50;68.30;;;;;;4938799;29;20199;-79
2021/01/16 10:08:06;;;;;;;30.42;17.55;;;0.50;68.90;;;;;;4931107;28;20209;-80
2021/01/16 10:10:50;;;;;;;36.08;20.77;;;0.60;68.10;;;;;;4997760;28;20208;-81
2021/01/16 10:13:34;;;;;;;32.70;18.10;;;0.60;68.00;;;;;;4997447;28;20233;-80
2021/01/16 10:16:05;;;;;;;30.38;17.77;;;0.70;68.10;;;;;;4995520;28;20221;-81
2021/01/16 10:18:35;;;;;;;34.63;19.73;;;0.70;68.00;;;;;;4996232;28;20259;-81
2021/01/16 10:21:13;;;;;;;34.45;18.08;;;0.90;67.70;;;;;;4977890;28;20637;-80
2021/01/16 10:23:50;;;;;;;32.53;18.17;;;1.00;67.30;;;;;;4977822;29;20194;-81
2021/01/16 10:26:19;;;;;;;26.95;16.38;;;1.00;66.00;;;;;;4976406;28;20253;-80
2021/01/16 10:29:20;;;;;;;29.33;18.02;;;1.20;65.40;;;;;;4978876;28;20217;-78
2021/01/16 10:31:47;;;;;;;27.38;15.70;;;1.30;64.70;;;;;;4998311;28;20205;-78
2021/01/16 10:34:14;;;;;;;26.35;16.45;;;1.40;63.10;;;;;;4995528;28;20213;-79
2021/01/16 10:40:23;;;;;;;31.00;17.00;;;1.40;62.10;;;;;;4990167;28;20243;-80
2021/01/16 10:43:47;;;;;;;24.05;14.48;;;1.40;61.20;;;;;;4991755;28;20638;-80
2021/01/16 10:52:31;;;;;;;22.23;14.07;;;1.50;61.30;;;;;;4972306;29;20321;-77
2021/01/16 10:54:59;;;;;;;24.92;14.38;;;1.40;60.60;;;;;;4964033;28;20274;-78
2021/01/16 10:57:40;;;;;;;23.73;14.27;;;1.50;60.10;;;;;;4954526;29;20746;-80
2021/01/16 11:00:11;;;;;;;22.13;14.85;;;1.50;59.10;;;;;;4961025;29;20206;-81
2021/01/16 11:02:42;;;;;;;20.35;13.30;;;1.50;59.00;;;;;;4928523;29;20230;-81
2021/01/16 11:05:29;;;;;;;24.48;15.02;;;1.40;59.10;;;;;;4954758;28;20230;-77
2021/01/16 11:08:22;;;;;;;24.45;15.10;;;1.40;59.80;;;;;;4933990;29;20230;-76
2021/01/16 11:10:51;;;;;;;22.40;15.27;;;1.40;59.30;;;;;;4920021;29;20231;-81
2021/01/16 11:13:27;;;;;;;24.77;14.35;;;1.20;60.00;;;;;;4935795;29;20215;-80
2021/01/16 11:15:57;;;;;;;30.38;16.38;;;1.20;61.10;;;;;;4952082;28;20215;-79
2021/01/16 11:19:03;;;;;;;29.92;16.25;;;1.30;61.20;;;;;;4948863;29;20206;-76
2021/01/16 11:21:52;;;;;;;29.40;17.35;;;1.40;61.20;;;;;;4951993;29;20195;-76
2021/01/16 11:31:27;;;;;;;27.75;17.17;;;1.20;61.10;;;;;;4993879;28;20257;-79
2021/01/16 11:34:25;;;;;;;32.25;17.85;;;1.40;60.90;;;;;;4991492;28;20217;-80
2021/01/16 11:37:29;;;;;;;30.45;17.50;;;1.60;59.70;;;;;;4958516;29;20215;-79
2021/01/16 11:39:56;;;;;;;28.00;18.35;;;1.80;59.60;;;;;;4959710;29;20203;-80
2021/01/16 11:42:23;;;;;;;27.08;17.42;;;1.70;58.00;;;;;;4957428;29;20231;-80
2021/01/16 11:54:56;;;;;;;27.70;17.00;;;1.40;59.60;;;;;;5057751;23;20279;-80
2021/01/16 11:57:27;;;;;;;28.20;15.80;;;1.50;60.00;;;;;;5010223;28;20232;-80
2021/01/16 11:59:57;;;;;;;29.15;17.27;;;1.70;59.80;;;;;;5011234;28;20209;-79
2021/01/16 12:02:25;;;;;;;29.77;17.50;;;1.70;59.60;;;;;;5014674;28;20208;-79
2021/01/16 12:04:53;;;;;;;28.45;17.15;;;1.80;58.70;;;;;;5017106;28;20315;-79
2021/01/16 12:10:40;;;;;;;31.10;18.17;;;1.80;57.10;;;;;;5016460;28;20212;-82
2021/01/16 12:35:24;;;;;;;23.42;15.13;;;1.70;54.80;;;;;;5073368;28;20252;-80
2021/01/16 12:37:55;;;;;;;31.70;17.75;;;1.80;55.10;;;;;;5077059;28;20221;-79
2021/01/16 12:40:31;;;;;;;28.67;17.35;;;1.90;54.90;;;;;;5057491;28;20290;-82
2021/01/16 12:43:10;;;;;;;27.67;16.08;;;2.00;54.60;;;;;;5069515;28;20241;-81
2021/01/16 12:45:42;;;;;;;25.33;14.18;;;2.00;52.70;;;;;;5067903;28;20234;-82
2021/01/16 12:48:09;;;;;;;22.48;13.18;;;1.70;52.50;;;;;;5068143;28;20333;-80
2021/01/16 12:50:39;;;;;;;27.33;15.23;;;1.80;52.60;;;;;;5067298;28;20222;-80
2021/01/16 12:53:08;;;;;;;25.58;14.07;;;1.90;52.60;;;;;;5067114;28;20202;-81
2021/01/16 12:55:37;;;;;;;27.58;14.52;;;1.90;52.60;;;;;;5070337;28;20226;-81
2021/01/16 12:58:04;;;;;;;26.73;14.80;;;1.90;52.60;;;;;;5073194;28;20206;-81
2021/01/16 13:17:30;;;;;;;23.90;14.07;;;1.80;52.10;;;;;;5720024;23;20512;-80
2021/01/16 13:19:58;;;;;;;22.15;13.00;;;1.70;52.50;;;;;;5034433;28;20231;-80
2021/01/16 13:22:26;;;;;;;27.55;14.35;;;1.60;52.40;;;;;;5033935;28;20215;-80
2021/01/16 13:25:08;;;;;;;21.98;12.63;;;1.60;52.40;;;;;;5055282;28;20314;-79
2021/01/16 13:27:37;;;;;;;17.83;10.50;;;1.70;51.20;;;;;;5062835;28;20206;-80
2021/01/16 13:30:19;;;;;;;10.73;7.38;;;1.70;49.40;;;;;;5044720;28;20251;-79
2021/01/16 13:32:48;;;;;;;12.02;8.35;;;1.60;47.70;;;;;;5044081;28;20266;-79
2021/01/16 13:38:38;;;;;;;16.77;9.65;;;1.60;47.30;;;;;;5055083;28;20198;-81
2021/01/16 13:44:31;;;;;;;18.52;10.80;;;1.50;49.00;;;;;;5073171;28;20209;-77
2021/01/16 13:46:57;;;;;;;16.80;10.18;;;1.60;49.20;;;;;;5068735;28;20214;-79
2021/01/16 14:10:10;;;;;;;13.80;8.55;;;1.00;49.50;;;;;;5340417;23;20235;-80
2021/01/16 14:12:36;;;;;;;14.25;9.30;;;1.10;48.90;;;;;;5020564;28;20220;-81
2021/01/16 14:15:08;;;;;;;16.23;9.13;;;1.00;49.60;;;;;;5021407;28;20224;-79
2021/01/16 14:17:39;;;;;;;15.68;9.57;;;0.90;49.90;;;;;;5020345;28;20203;-80
2021/01/16 14:20:11;;;;;;;16.50;10.00;;;1.00;50.80;;;;;;5020182;28;20219;-81
2021/01/16 14:22:40;;;;;;;17.20;10.23;;;0.90;51.50;;;;;;5019303;28;20196;-79
2021/01/16 14:25:12;;;;;;;15.15;9.43;;;1.00;51.80;;;;;;5019049;28;20224;-78
2021/01/16 14:27:41;;;;;;;16.65;9.63;;;1.00;51.60;;;;;;5027618;28;20264;-77
2021/01/16 14:30:10;;;;;;;14.57;9.45;;;0.90;51.80;;;;;;5036760;28;20215;-77
2021/01/16 14:32:37;;;;;;;16.65;9.48;;;0.80;51.60;;;;;;5036986;28;20207;-76
2021/01/16 14:35:15;;;;;;;12.68;9.13;;;0.80;51.70;;;;;;5032443;28;20223;-76
2021/01/16 14:37:42;;;;;;;16.98;9.73;;;0.80;51.70;;;;;;5023748;28;20184;-77
2021/01/16 14:40:11;;;;;;;17.27;9.93;;;0.70;51.60;;;;;;5025714;28;20192;-79
2021/01/16 14:42:37;;;;;;;17.95;10.23;;;0.70;51.60;;;;;;5036703;28;20252;-78
2021/01/16 14:45:05;;;;;;;14.52;9.00;;;0.70;51.60;;;;;;5036762;28;20222;-77
2021/01/16 14:47:32;;;;;;;16.55;9.32;;;0.60;51.50;;;;;;5036890;28;20192;-77
2021/01/16 14:50:06;;;;;;;16.80;10.00;;;0.50;52.30;;;;;;5036245;28;20211;-78
2021/01/16 14:52:34;;;;;;;19.73;11.18;;;0.50;52.70;;;;;;5036972;28;20319;-77